Terminal Aerodrome Forecast
Issued by NWS Boston, MA

Home | Current Version | Previous Version | Text Only | Print | Product List | Glossary On
Versions: 1 2 3 4 5 6 7 8 9 10 11 12 13 14 15 16 17 18 19 20 21 22 23 24 25 26 27 28 29 30 31 32 33 34
000
FTUS41 KBOX 252323
TAFORH
TAF
KORH 252323Z 2600/2624 21008KT P6SM BKN050
     FM260500 22009KT P6SM BKN025
     FM260700 22009KT 3SM BR VCSH BKN015
     FM261300 23008KT 5SM BR VCSH BKN025
     FM261500 25007KT P6SM VCSH BKN040
     FM262000 28006KT P6SM SCT100=

USA.gov is the U.S. government's official web portal to all federal, state and local government web resources and services.